createdAt,value
2023-01-05T00:01:54.195Z,26.70
2023-01-05T00:04:22.360Z,20.73
2023-01-05T00:06:50.002Z,21.00
2023-01-05T00:09:19.351Z,22.03
2023-01-05T00:12:05.821Z,22.77
2023-01-05T00:14:53.451Z,19.70
2023-01-05T00:17:42.158Z,20.30
2023-01-05T00:20:47.162Z,25.70
2023-01-05T00:23:14.747Z,24.00
2023-01-05T00:25:42.422Z,19.67
2023-01-05T00:28:10.041Z,20.50
2023-01-05T00:30:45.949Z,20.27
2023-01-05T00:33:17.486Z,19.43
2023-01-05T00:35:45.330Z,19.33
2023-01-05T00:38:13.085Z,21.23
2023-01-05T00:40:40.721Z,23.97
2023-01-05T00:43:08.204Z,25.83
2023-01-05T00:45:35.729Z,19.20
2023-01-05T00:48:03.294Z,20.47
2023-01-05T00:50:30.859Z,24.33
2023-01-05T00:52:58.344Z,26.00
2023-01-05T00:55:25.932Z,23.63
2023-01-05T00:57:53.579Z,29.43
2023-01-05T01:00:21.226Z,25.67
2023-01-05T01:02:55.053Z,24.13
2023-01-05T01:05:23.337Z,22.57
2023-01-05T01:07:50.993Z,20.90
2023-01-05T01:10:18.731Z,25.90
2023-01-05T01:12:46.281Z,31.17
2023-01-05T01:15:13.978Z,28.27
2023-01-05T01:17:42.904Z,24.93
2023-01-05T01:20:10.804Z,26.43
2023-01-05T01:22:38.441Z,22.93
2023-01-05T01:25:07.631Z,28.17
2023-01-05T01:27:35.424Z,32.33
2023-01-05T01:30:03.005Z,31.17
2023-01-05T01:32:30.548Z,31.00
2023-01-05T01:34:58.039Z,30.60
2023-01-05T01:37:25.668Z,31.20
2023-01-05T01:39:56.074Z,28.47
2023-01-05T01:42:24.312Z,32.80
2023-01-05T01:45:18.247Z,30.60
2023-01-05T01:47:59.769Z,42.60
2023-01-05T01:50:49.520Z,43.73
2023-01-05T01:53:52.151Z,46.33
2023-01-05T01:56:22.468Z,44.97
2023-01-05T01:58:50.827Z,41.07
2023-01-05T02:01:19.383Z,48.27
2023-01-05T02:03:47.639Z,47.30
2023-01-05T02:06:15.640Z,40.30
2023-01-05T02:08:43.846Z,43.80
2023-01-05T02:11:18.276Z,41.93
2023-01-05T02:14:18.512Z,48.57
2023-01-05T02:17:30.706Z,41.43
2023-01-05T02:20:28.527Z,36.47
2023-01-05T02:23:15.807Z,45.27
2023-01-05T02:26:02.118Z,47.30
2023-01-05T02:29:12.434Z,40.23
2023-01-05T02:32:04.278Z,42.40
2023-01-05T02:34:42.332Z,33.73
2023-01-05T02:37:21.841Z,31.13
2023-01-05T02:39:59.262Z,31.13
2023-01-05T02:42:30.912Z,31.83
2023-01-05T02:45:01.135Z,29.97
2023-01-05T02:47:28.661Z,31.23
2023-01-05T02:50:09.828Z,29.80
2023-01-05T02:52:46.923Z,27.67
2023-01-05T02:55:23.587Z,29.23
2023-01-05T02:58:02.529Z,28.13
2023-01-05T03:00:47.167Z,30.80
2023-01-05T03:03:30.071Z,33.23
2023-01-05T03:06:25.668Z,29.13
2023-01-05T03:09:00.421Z,37.67
2023-01-05T03:12:02.001Z,36.50
2023-01-05T03:14:43.498Z,38.80
2023-01-05T03:17:17.921Z,45.23
2023-01-05T03:19:50.698Z,48.33
2023-01-05T03:22:49.931Z,46.40
2023-01-05T03:25:40.080Z,45.37
2023-01-05T03:28:35.865Z,44.23
2023-01-05T03:31:54.569Z,40.03
2023-01-05T03:35:02.207Z,41.70
2023-01-05T03:37:44.573Z,36.97
2023-01-05T03:40:22.686Z,28.40
2023-01-05T03:42:53.224Z,39.40
2023-01-05T03:45:27.123Z,37.70
2023-01-05T03:47:56.084Z,30.37
2023-01-05T03:50:26.895Z,33.47
2023-01-05T03:52:55.020Z,42.07
2023-01-05T03:55:23.530Z,35.97
2023-01-05T03:57:53.772Z,37.33
2023-01-05T04:00:22.816Z,34.63
2023-01-05T04:02:59.389Z,30.60
2023-01-05T04:05:27.131Z,36.30
2023-01-05T04:07:55.002Z,30.70
2023-01-05T04:10:22.602Z,31.23
2023-01-05T04:12:50.099Z,31.87
2023-01-05T04:15:19.147Z,32.23
2023-01-05T04:17:47.042Z,32.07
2023-01-05T04:20:14.680Z,32.40
2023-01-05T04:22:42.887Z,32.77
2023-01-05T04:25:10.816Z,30.70
2023-01-05T04:27:39.967Z,36.90
2023-01-05T04:30:08.702Z,44.40
2023-01-05T04:32:36.359Z,42.73
2023-01-05T04:35:11.049Z,39.63
2023-01-05T04:37:40.637Z,35.23
2023-01-05T04:40:09.862Z,32.10
2023-01-05T04:42:46.361Z,29.67
2023-01-05T04:45:14.339Z,34.53
2023-01-05T04:47:41.812Z,34.20
2023-01-05T04:50:12.063Z,34.77
2023-01-05T04:52:40.510Z,39.87
2023-01-05T04:55:09.026Z,36.67
2023-01-05T04:57:37.191Z,31.73
2023-01-05T05:00:06.056Z,33.67
2023-01-05T05:02:34.993Z,48.73
2023-01-05T05:05:02.644Z,47.40
2023-01-05T05:07:30.380Z,45.97
2023-01-05T05:09:59.409Z,56.83
2023-01-05T05:12:27.236Z,44.97
2023-01-05T05:14:54.836Z,39.53
2023-01-05T05:17:22.332Z,38.60
2023-01-05T05:19:50.526Z,40.20
2023-01-05T05:22:21.083Z,42.47
2023-01-05T05:24:48.686Z,38.30
2023-01-05T05:27:16.142Z,36.00
2023-01-05T05:29:43.703Z,37.53
2023-01-05T05:32:11.446Z,32.20
2023-01-05T05:34:38.940Z,30.30
2023-01-05T05:37:06.837Z,30.27
2023-01-05T05:39:34.316Z,29.83
2023-01-05T05:42:01.834Z,34.77
2023-01-05T05:44:29.290Z,38.30
2023-01-05T05:46:58.084Z,45.83
2023-01-05T05:49:25.571Z,49.33
2023-01-05T05:51:53.116Z,46.30
2023-01-05T05:54:20.812Z,43.67
2023-01-05T05:56:48.361Z,33.83
2023-01-05T05:59:15.980Z,39.33
2023-01-05T06:01:43.731Z,45.60
2023-01-05T06:04:12.190Z,39.57
2023-01-05T06:06:39.979Z,85.77
2023-01-05T06:09:07.545Z,259.27
2023-01-05T06:11:35.403Z,137.33
2023-01-05T06:14:03.229Z,121.10
2023-01-05T06:16:30.843Z,93.30
2023-01-05T06:18:58.667Z,100.70
2023-01-05T06:21:26.150Z,90.23
2023-01-05T06:23:53.609Z,88.07
2023-01-05T06:26:21.155Z,115.27
2023-01-05T06:28:48.633Z,202.37
2023-01-05T06:31:16.149Z,180.80
2023-01-05T06:33:43.684Z,111.63
2023-01-05T06:36:11.355Z,105.70
2023-01-05T06:38:38.849Z,101.10
2023-01-05T06:41:06.539Z,117.17
2023-01-05T06:43:34.072Z,80.60
2023-01-05T06:46:01.726Z,61.20
2023-01-05T06:48:29.347Z,67.97
2023-01-05T06:50:56.876Z,98.60
2023-01-05T06:53:24.317Z,81.97
2023-01-05T06:55:51.759Z,99.07
2023-01-05T06:58:19.282Z,91.30
2023-01-05T07:00:46.832Z,90.03
2023-01-05T07:03:14.663Z,60.83
2023-01-05T07:05:42.860Z,50.23
2023-01-05T07:08:10.326Z,40.93
2023-01-05T07:10:37.878Z,43.80
2023-01-05T07:13:05.382Z,39.20
2023-01-05T07:15:32.937Z,48.20
2023-01-05T07:18:00.413Z,123.17
2023-01-05T07:20:28.091Z,107.17
2023-01-05T07:22:55.727Z,72.30
2023-01-05T07:25:23.446Z,64.50
2023-01-05T07:27:53.590Z,66.77
2023-01-05T07:30:21.003Z,67.17
2023-01-05T07:32:48.473Z,68.73
2023-01-05T07:35:16.198Z,68.00
2023-01-05T07:37:44.507Z,56.97
2023-01-05T07:40:12.669Z,45.33
2023-01-05T07:42:40.298Z,37.87
2023-01-05T07:45:10.469Z,49.20
2023-01-05T07:47:40.358Z,56.43
2023-01-05T07:50:08.616Z,59.10
2023-01-05T07:52:36.124Z,51.27
2023-01-05T07:55:04.624Z,52.83
2023-01-05T07:57:32.157Z,60.83
2023-01-05T08:00:00.145Z,55.77
2023-01-05T08:02:32.368Z,58.27
2023-01-05T08:05:03.519Z,54.37
2023-01-05T08:07:30.995Z,49.73
2023-01-05T08:10:18.083Z,53.80
2023-01-05T08:13:04.384Z,46.03
2023-01-05T08:15:31.948Z,41.17
2023-01-05T08:17:59.444Z,44.17
2023-01-05T08:20:26.978Z,40.83
2023-01-05T08:22:55.121Z,40.87
2023-01-05T08:25:22.849Z,36.13
2023-01-05T08:27:51.504Z,39.23
2023-01-05T08:30:19.033Z,34.70
2023-01-05T08:32:47.235Z,30.17
2023-01-05T08:35:14.761Z,28.17
2023-01-05T08:37:46.119Z,33.10
2023-01-05T08:40:13.773Z,35.27
2023-01-05T08:42:41.269Z,37.50
2023-01-05T08:45:10.270Z,47.67
2023-01-05T08:47:37.753Z,38.40
2023-01-05T08:50:06.324Z,36.67
2023-01-05T08:52:33.875Z,39.40
2023-01-05T08:55:02.634Z,36.60
2023-01-05T08:57:31.214Z,35.10
2023-01-05T08:59:58.660Z,36.63
2023-01-05T09:02:26.822Z,35.90
2023-01-05T09:04:54.587Z,37.63
2023-01-05T09:07:22.495Z,33.80
2023-01-05T09:09:49.974Z,31.13
2023-01-05T09:12:17.442Z,32.70
2023-01-05T09:14:45.004Z,30.87
2023-01-05T09:17:12.545Z,31.87
2023-01-05T09:19:40.123Z,29.67
2023-01-05T09:22:07.585Z,32.93
2023-01-05T09:24:35.096Z,26.93
2023-01-05T09:27:03.904Z,39.80
2023-01-05T09:29:31.542Z,40.00
2023-01-05T09:31:59.668Z,32.07
2023-01-05T09:34:27.334Z,31.77
2023-01-05T09:36:54.806Z,31.00
2023-01-05T09:39:22.247Z,27.33
2023-01-05T09:41:58.928Z,23.20
2023-01-05T09:44:29.678Z,28.37
2023-01-05T09:47:31.067Z,23.97
2023-01-05T09:50:00.657Z,26.90
2023-01-05T09:52:31.523Z,26.57
2023-01-05T09:55:18.995Z,28.40
2023-01-05T09:58:07.590Z,29.50
2023-01-05T10:00:45.117Z,26.40
2023-01-05T10:03:53.202Z,31.63
2023-01-05T10:06:16.919Z,24.43
2023-01-05T10:08:49.910Z,23.27
2023-01-05T10:11:58.454Z,22.00
2023-01-05T10:14:40.673Z,27.57
2023-01-05T10:20:38.460Z,23.77
2023-01-05T10:23:26.959Z,25.37
2023-01-05T10:26:50.986Z,28.30
2023-01-05T10:29:47.468Z,22.40
2023-01-05T10:32:32.329Z,52.33
2023-01-05T10:35:59.606Z,26.17
2023-01-05T10:38:58.923Z,21.87
2023-01-05T10:41:40.151Z,26.20
2023-01-05T10:44:41.669Z,31.80
2023-01-05T10:47:11.228Z,26.93
2023-01-05T10:49:42.539Z,24.70
2023-01-05T10:52:16.355Z,22.63
2023-01-05T10:54:56.453Z,19.37
2023-01-05T10:57:34.612Z,27.40
2023-01-05T11:00:08.288Z,23.77
2023-01-05T11:02:40.318Z,20.57
2023-01-05T11:05:10.744Z,21.17
2023-01-05T11:07:51.523Z,21.30
2023-01-05T11:10:25.029Z,19.80
2023-01-05T11:13:33.492Z,18.30
2023-01-05T11:16:13.348Z,18.57
2023-01-05T11:19:00.496Z,18.73
2023-01-05T11:21:43.535Z,30.10
2023-01-05T11:24:29.640Z,21.57
2023-01-05T11:27:03.757Z,29.97
2023-01-05T11:29:32.080Z,25.43
2023-01-05T11:32:06.405Z,38.67
2023-01-05T11:34:42.182Z,16.93
2023-01-05T11:37:12.485Z,13.83
2023-01-05T11:39:49.672Z,20.40
2023-01-05T11:42:27.916Z,17.33
2023-01-05T11:45:02.484Z,13.00
2023-01-05T11:47:57.998Z,13.63
2023-01-05T11:50:32.125Z,11.93
2023-01-05T11:53:02.447Z,11.77
2023-01-05T11:55:38.406Z,11.43
2023-01-05T11:58:20.801Z,16.63
2023-01-05T12:01:11.383Z,14.30
2023-01-05T12:04:04.758Z,24.17
2023-01-05T12:06:39.095Z,14.53
2023-01-05T12:09:37.815Z,13.67
2023-01-05T12:12:47.634Z,30.20
2023-01-05T12:15:51.588Z,15.67
2023-01-05T12:19:14.981Z,10.30
2023-01-05T12:22:28.339Z,10.37
2023-01-05T12:25:15.032Z,10.23
2023-01-05T12:28:35.579Z,9.60
2023-01-05T12:34:57.911Z,9.57
2023-01-05T12:37:45.928Z,9.57
2023-01-05T12:41:09.839Z,11.87
2023-01-05T12:44:50.878Z,10.70
2023-01-05T12:47:57.736Z,13.27
2023-01-05T12:50:48.506Z,9.53
2023-01-05T12:53:32.207Z,11.70
2023-01-05T12:56:19.684Z,19.90
2023-01-05T12:59:04.756Z,15.53
2023-01-05T13:01:39.422Z,17.83
2023-01-05T13:04:34.329Z,15.80
2023-01-05T13:07:19.670Z,12.33
2023-01-05T13:10:02.515Z,18.03
2023-01-05T13:12:32.892Z,17.93
2023-01-05T13:15:21.847Z,13.77
2023-01-05T13:17:52.069Z,10.87
2023-01-05T13:20:41.285Z,14.00
2023-01-05T13:23:33.650Z,19.20
2023-01-05T13:26:14.904Z,12.80
2023-01-05T13:28:42.940Z,13.77
2023-01-05T13:31:38.172Z,10.87
2023-01-05T13:34:38.018Z,8.60
2023-01-05T13:37:30.287Z,9.70
2023-01-05T13:40:12.838Z,9.53
2023-01-05T13:43:04.984Z,9.03
2023-01-05T13:46:08.749Z,10.00
2023-01-05T13:49:15.380Z,21.83
2023-01-05T13:52:03.200Z,20.90
2023-01-05T13:55:00.272Z,18.47
2023-01-05T13:57:38.546Z,13.30
2023-01-05T14:00:27.990Z,17.07
2023-01-05T14:03:29.776Z,14.83
2023-01-05T14:06:01.415Z,12.30
2023-01-05T14:08:46.648Z,20.40
2023-01-05T14:11:22.817Z,12.87
2023-01-05T14:14:08.635Z,23.43
2023-01-05T14:16:37.525Z,14.73
2023-01-05T14:19:52.823Z,15.87
2023-01-05T14:22:20.224Z,20.40
2023-01-05T14:24:49.072Z,21.80
2023-01-05T14:27:24.604Z,27.20
2023-01-05T14:29:55.506Z,39.80
2023-01-05T14:32:41.368Z,40.77
2023-01-05T14:35:37.171Z,84.90
2023-01-05T14:38:18.592Z,78.17
2023-01-05T14:40:52.890Z,60.00
2023-01-05T14:43:40.773Z,48.43
2023-01-05T14:46:15.453Z,112.80
2023-01-05T14:49:07.911Z,72.10
2023-01-05T14:51:38.763Z,51.17
2023-01-05T14:54:50.346Z,55.73
2023-01-05T14:57:27.181Z,49.80
2023-01-05T15:00:27.834Z,46.53
2023-01-05T15:03:40.531Z,44.20
2023-01-05T15:06:19.849Z,42.97
2023-01-05T15:09:25.526Z,43.20
2023-01-05T15:12:15.974Z,29.07
2023-01-05T15:15:23.828Z,37.93
2023-01-05T15:18:23.433Z,49.50
2023-01-05T15:21:18.429Z,42.33
2023-01-05T15:24:27.701Z,76.63
2023-01-05T15:27:22.486Z,83.80
2023-01-05T15:30:34.829Z,65.70
2023-01-05T15:33:18.487Z,48.33
2023-01-05T15:35:54.314Z,50.73
2023-01-05T15:38:26.340Z,63.87
2023-01-05T15:41:10.769Z,70.60
2023-01-05T15:43:41.605Z,93.33
2023-01-05T15:46:12.865Z,100.03
2023-01-05T15:48:46.649Z,76.40
2023-01-05T15:51:25.463Z,57.47
2023-01-05T15:54:05.604Z,44.33
2023-01-05T15:56:41.186Z,47.53
2023-01-05T15:59:33.003Z,43.30
2023-01-05T16:02:00.854Z,29.33
2023-01-05T16:04:28.495Z,35.73
2023-01-05T16:07:04.024Z,27.03
2023-01-05T16:09:36.074Z,39.67
2023-01-05T16:12:23.264Z,42.30
2023-01-05T16:15:01.777Z,36.73
2023-01-05T16:17:34.790Z,38.80
2023-01-05T16:20:15.546Z,37.70
2023-01-05T16:23:04.502Z,33.63
2023-01-05T16:25:50.981Z,32.73
2023-01-05T16:28:23.016Z,44.00
2023-01-05T16:30:53.983Z,42.97
2023-01-05T16:33:36.410Z,48.37
2023-01-05T16:36:21.123Z,51.07
2023-01-05T16:38:49.384Z,43.70
2023-01-05T16:41:28.065Z,36.47
2023-01-05T16:44:01.401Z,32.93
2023-01-05T16:46:37.313Z,44.30
2023-01-05T16:49:28.412Z,60.63
2023-01-05T16:52:02.761Z,68.93
2023-01-05T16:54:45.033Z,48.93
2023-01-05T16:58:03.466Z,74.67
2023-01-05T17:00:36.424Z,68.73
2023-01-05T17:03:32.289Z,78.10
2023-01-05T17:06:01.824Z,99.10
2023-01-05T17:08:36.349Z,193.07
2023-01-05T17:11:08.078Z,242.17
2023-01-05T17:13:49.231Z,175.40
2023-01-05T17:16:18.692Z,145.77
2023-01-05T17:18:47.589Z,134.60
2023-01-05T17:24:14.600Z,124.40
2023-01-05T17:26:46.637Z,109.60
2023-01-05T17:29:28.802Z,104.03
2023-01-05T17:31:57.340Z,108.70
2023-01-05T17:34:25.662Z,94.80
2023-01-05T17:36:57.774Z,291.23
2023-01-05T17:39:29.120Z,239.10
2023-01-05T17:42:18.427Z,179.40
2023-01-05T17:44:52.177Z,181.70
2023-01-05T17:47:20.902Z,148.47
2023-01-05T17:49:48.567Z,153.50
2023-01-05T17:52:16.095Z,159.20
2023-01-05T17:54:44.646Z,156.83
2023-01-05T17:57:19.092Z,139.67
2023-01-05T17:59:47.303Z,150.43
2023-01-05T18:02:16.466Z,147.53
2023-01-05T18:04:44.009Z,142.30
2023-01-05T18:07:12.230Z,96.67
2023-01-05T18:09:40.359Z,456.00
2023-01-05T18:12:11.828Z,253.90
2023-01-05T18:14:40.003Z,424.67
2023-01-05T18:17:08.691Z,393.33
2023-01-05T18:19:37.555Z,261.83
2023-01-05T18:22:07.235Z,198.30
2023-01-05T18:24:35.613Z,160.33
2023-01-05T18:27:07.038Z,220.57
2023-01-05T18:29:37.249Z,215.13
2023-01-05T18:32:06.935Z,248.50
2023-01-05T18:34:34.811Z,239.93
2023-01-05T18:37:06.338Z,230.93
2023-01-05T18:39:39.195Z,215.03
2023-01-05T18:42:07.214Z,273.87
2023-01-05T18:44:35.632Z,159.17
2023-01-05T18:47:03.193Z,157.37
2023-01-05T18:49:31.910Z,201.83
2023-01-05T18:52:00.065Z,130.43
2023-01-05T18:54:28.249Z,97.00
2023-01-05T18:56:56.982Z,133.07
2023-01-05T18:59:25.128Z,160.07
2023-01-05T19:01:52.789Z,199.83
2023-01-05T19:04:20.922Z,112.50
2023-01-05T19:06:48.506Z,101.30
2023-01-05T19:09:16.197Z,106.57
2023-01-05T19:11:49.219Z,131.63
2023-01-05T19:14:25.142Z,107.47
2023-01-05T19:16:54.690Z,106.23
2023-01-05T19:19:23.097Z,129.87
2023-01-05T19:22:11.385Z,143.50
2023-01-05T19:24:43.513Z,140.67
2023-01-05T19:27:11.187Z,199.50
2023-01-05T19:29:42.205Z,215.23
2023-01-05T19:32:12.608Z,219.70
2023-01-05T19:34:44.588Z,227.77
2023-01-05T19:37:16.228Z,184.33
2023-01-05T19:39:49.231Z,192.70
2023-01-05T19:42:39.430Z,343.50
2023-01-05T19:45:22.736Z,181.33
2023-01-05T19:47:50.365Z,222.33
2023-01-05T19:50:19.107Z,358.43
2023-01-05T19:52:46.643Z,236.03
2023-01-05T19:55:19.503Z,186.67
2023-01-05T19:57:53.453Z,163.47
2023-01-05T20:00:21.529Z,114.67
2023-01-05T20:02:49.107Z,69.00
2023-01-05T20:05:17.471Z,72.90
2023-01-05T20:07:50.020Z,58.03
2023-01-05T20:10:23.635Z,61.00
2023-01-05T20:12:53.976Z,59.43
2023-01-05T20:15:25.573Z,59.07
2023-01-05T20:17:53.631Z,51.93
2023-01-05T20:20:23.949Z,46.83
2023-01-05T20:22:54.498Z,48.97
2023-01-05T20:25:26.071Z,47.63
2023-01-05T20:27:58.754Z,48.47
2023-01-05T20:30:29.392Z,55.10
2023-01-05T20:32:58.369Z,55.07
2023-01-05T20:35:29.417Z,55.53
2023-01-05T20:38:01.418Z,43.93
2023-01-05T20:40:31.117Z,41.50
2023-01-05T20:43:00.457Z,35.23
2023-01-05T20:45:30.786Z,28.60
2023-01-05T20:48:00.078Z,31.00
2023-01-05T20:50:32.135Z,25.47
2023-01-05T20:53:01.063Z,21.43
2023-01-05T20:55:28.633Z,26.83
2023-01-05T20:57:58.575Z,29.27
2023-01-05T21:00:26.423Z,28.43
2023-01-05T21:02:56.591Z,29.23
2023-01-05T21:05:28.985Z,33.67
2023-01-05T21:07:56.641Z,36.30
2023-01-05T21:10:25.040Z,36.47
2023-01-05T21:12:54.947Z,30.33
2023-01-05T21:15:56.174Z,29.57
2023-01-05T21:18:25.206Z,31.13
2023-01-05T21:20:55.877Z,33.30
2023-01-05T21:23:48.468Z,38.83
2023-01-05T21:26:19.503Z,26.73
2023-01-05T21:28:56.943Z,27.10
2023-01-05T21:31:32.158Z,26.33
2023-01-05T21:34:01.940Z,29.27
2023-01-05T21:36:35.028Z,22.43
2023-01-05T21:39:09.289Z,25.77
2023-01-05T21:41:57.600Z,28.00
2023-01-05T21:44:26.356Z,31.07
2023-01-05T21:46:54.285Z,31.77
2023-01-05T21:49:24.259Z,26.70
2023-01-05T21:52:10.307Z,28.20
2023-01-05T21:54:57.906Z,27.17
2023-01-05T21:57:27.083Z,31.87
2023-01-05T21:59:55.832Z,26.87
2023-01-05T22:02:23.315Z,25.50
2023-01-05T22:04:50.937Z,29.63
2023-01-05T22:07:18.381Z,29.83
2023-01-05T22:09:46.126Z,26.73
2023-01-05T22:12:13.591Z,25.07
2023-01-05T22:14:41.177Z,23.43
2023-01-05T22:17:10.248Z,24.13
2023-01-05T22:19:38.433Z,24.60
2023-01-05T22:22:05.962Z,24.13
2023-01-05T22:24:33.648Z,22.37
2023-01-05T22:27:01.178Z,26.60
2023-01-05T22:29:28.747Z,20.10
2023-01-05T22:32:00.540Z,19.93
2023-01-05T22:34:29.636Z,21.13
2023-01-05T22:36:57.278Z,21.47
2023-01-05T22:39:24.921Z,18.80
2023-01-05T22:41:52.457Z,21.37
2023-01-05T22:44:20.080Z,20.63
2023-01-05T22:46:47.543Z,20.87
2023-01-05T22:49:16.639Z,22.87
2023-01-05T22:51:46.246Z,20.53
2023-01-05T22:54:14.198Z,24.57
2023-01-05T22:56:41.701Z,19.10
2023-01-05T22:59:09.286Z,18.00
2023-01-05T23:01:43.245Z,19.83
2023-01-05T23:04:15.033Z,20.43
2023-01-05T23:06:43.692Z,24.73
2023-01-05T23:09:15.209Z,25.43
2023-01-05T23:11:46.154Z,21.47
2023-01-05T23:14:14.988Z,24.80
2023-01-05T23:16:42.589Z,22.43
2023-01-05T23:19:10.336Z,20.53
2023-01-05T23:21:37.915Z,24.43
2023-01-05T23:24:06.098Z,25.33
2023-01-05T23:26:33.680Z,23.83
2023-01-05T23:29:01.270Z,19.83
2023-01-05T23:31:29.115Z,18.97
2023-01-05T23:33:58.085Z,25.10
2023-01-05T23:36:25.834Z,23.77
2023-01-05T23:38:53.461Z,20.93
2023-01-05T23:41:20.968Z,21.57
2023-01-05T23:43:48.568Z,17.57
2023-01-05T23:46:23.702Z,18.97
2023-01-05T23:48:52.611Z,29.17
2023-01-05T23:51:21.290Z,31.03
2023-01-05T23:53:52.211Z,23.53
2023-01-05T23:56:29.683Z,24.00
2023-01-05T23:59:06.836Z,19.60
